Time;durP1;ratioP1;P1;durP2;ratioP2;P2;SDS_P1;SDS_P2;PMS_P1;PMS_P2;Temp;Humidity;BMP_temperature;BMP_pressure;BME280_temperature;BME280_humidity;BME280_pressure;Samples;Min_cycle;Max_cycle;Signal;HPM_P1;HPM_P2
2021/11/12 00:12:42;;;;;;;2.28;1.38;;;;;;;-0.43;97.30;99651.06;5093046;28;20063;-69
2021/11/12 00:15:12;;;;;;;3.83;1.20;;;;;;;-0.49;97.02;99646.09;5092502;28;20496;-69
2021/11/12 00:17:41;;;;;;;2.10;1.30;;;;;;;-0.53;97.45;99655.56;5092949;28;20055;-69
2021/11/12 00:20:09;;;;;;;4.97;1.27;;;;;;;-0.74;98.27;99653.59;5092518;28;20522;-69
2021/11/12 00:22:36;;;;;;;4.22;1.30;;;;;;;-0.44;97.74;99651.91;5092689;28;20051;-69
2021/11/12 00:25:05;;;;;;;1.33;1.00;;;;;;;-0.34;96.53;99652.50;5092777;28;20055;-69
2021/11/12 00:27:33;;;;;;;4.45;1.63;;;;;;;-0.29;96.66;99655.78;5092891;28;20086;-69
2021/11/12 00:30:08;;;;;;;2.25;1.05;;;;;;;-0.30;96.80;99654.13;5092900;28;20056;-70
2021/11/12 00:32:53;;;;;;;2.10;1.00;;;;;;;-0.34;96.70;99660.19;5092403;28;20139;-69
2021/11/12 00:35:29;;;;;;;1.30;1.00;;;;;;;-0.53;96.81;99657.31;5092218;28;20483;-69
2021/11/12 00:38:01;;;;;;;2.07;1.17;;;;;;;-0.57;96.98;99666.75;5092513;28;20389;-69
2021/11/12 00:40:33;;;;;;;2.97;1.00;;;;;;;-0.64;96.72;99662.69;5092767;28;20287;-69
2021/11/12 00:43:14;;;;;;;2.88;1.10;;;;;;;-0.77;97.13;99664.75;5092125;28;20043;-69
2021/11/12 00:45:49;;;;;;;3.28;0.90;;;;;;;-1.00;99.07;99667.88;5092427;28;20040;-69
2021/11/12 00:48:19;;;;;;;2.03;1.02;;;;;;;-0.78;98.37;99665.59;5092125;28;20044;-69
2021/11/12 00:53:48;;;;;;;2.50;0.95;;;;;;;-1.06;99.67;99667.19;5091511;28;20059;-69
2021/11/12 00:56:16;;;;;;;3.28;1.20;;;;;;;-1.19;100.00;99674.28;5091933;28;20143;-69
2021/11/12 00:58:43;;;;;;;1.17;1.08;;;;;;;-1.27;100.00;99674.47;5092472;28;20070;-69
2021/11/12 01:01:10;;;;;;;3.08;1.10;;;;;;;-1.20;100.00;99676.03;5091878;28;20406;-69
2021/11/12 01:03:37;;;;;;;2.33;1.30;;;;;;;-1.20;100.00;99681.13;5092121;28;20044;-69
2021/11/12 01:06:04;;;;;;;5.07;1.35;;;;;;;-1.20;100.00;99682.84;5092053;28;20056;-69
2021/11/12 01:08:31;;;;;;;3.88;1.20;;;;;;;-1.35;100.00;99684.88;5092243;28;20050;-69
2021/11/12 01:10:59;;;;;;;2.72;0.98;;;;;;;-1.22;100.00;99685.41;5092060;28;20511;-69
2021/11/12 01:13:27;;;;;;;2.13;1.10;;;;;;;-1.29;100.00;99683.03;5091998;28;20055;-69
2021/11/12 01:15:54;;;;;;;4.22;1.17;;;;;;;-1.35;100.00;99689.13;5092248;28;20048;-69
2021/11/12 01:18:21;;;;;;;2.80;1.33;;;;;;;-1.35;100.00;99696.78;5091532;28;20054;-69
2021/11/12 01:20:49;;;;;;;2.00;1.10;;;;;;;-1.15;100.00;99696.34;5092288;28;20075;-69
2021/11/12 01:23:17;;;;;;;4.82;1.40;;;;;;;-1.22;100.00;99698.19;5091938;28;20044;-69
2021/11/12 01:25:45;;;;;;;2.63;1.25;;;;;;;-1.17;100.00;99701.47;5091912;28;20056;-69
2021/11/12 01:28:12;;;;;;;2.45;1.10;;;;;;;-1.07;99.41;99704.66;5091511;28;20051;-69
2021/11/12 01:30:41;;;;;;;2.22;1.20;;;;;;;-1.04;98.67;99709.66;5092105;28;20048;-69
2021/11/12 01:33:08;;;;;;;1.52;0.95;;;;;;;-0.92;98.13;99711.09;5091588;28;20048;-69
2021/11/12 01:35:36;;;;;;;1.00;0.80;;;;;;;-1.16;99.26;99715.88;5091741;28;20047;-69
2021/11/12 01:38:04;;;;;;;3.30;1.10;;;;;;;-1.01;99.36;99709.59;5091886;28;20048;-69
2021/11/12 01:40:31;;;;;;;1.85;1.00;;;;;;;-1.19;99.89;99713.41;5091939;28;20093;-69
2021/11/12 01:43:07;;;;;;;2.35;1.08;;;;;;;-1.24;100.00;99715.25;5091937;28;20048;-69
2021/11/12 01:46:05;;;;;;;1.90;0.83;;;;;;;-1.28;100.00;99715.34;5091779;28;20046;-69
2021/11/12 01:48:53;;;;;;;2.05;1.10;;;;;;;-0.99;99.83;99714.66;5092080;28;20416;-69
2021/11/12 01:51:25;;;;;;;2.00;1.10;;;;;;;-0.94;99.33;99713.69;5091840;28;20293;-69
2021/11/12 01:54:07;;;;;;;5.68;1.17;;;;;;;-0.87;99.31;99714.38;5091352;28;20503;-69
2021/11/12 01:56:39;;;;;;;1.60;0.90;;;;;;;-0.79;98.78;99719.28;5091633;28;20062;-69
2021/11/12 01:59:12;;;;;;;1.63;1.20;;;;;;;-0.85;98.58;99716.88;5091685;28;20052;-69
2021/11/12 02:01:45;;;;;;;1.10;1.00;;;;;;;-0.95;98.86;99723.91;5091919;28;20139;-71
2021/11/12 02:04:15;;;;;;;3.67;1.08;;;;;;;-1.16;99.53;99733.75;5091516;28;20067;-70
2021/11/12 02:06:42;;;;;;;5.05;1.08;;;;;;;-1.14;100.00;99733.75;5094580;28;20048;-70
2021/11/12 02:09:15;;;;;;;3.45;1.35;;;;;;;-0.99;100.00;99727.44;5095388;28;20052;-70
2021/11/12 02:11:44;;;;;;;2.33;1.10;;;;;;;-1.01;99.28;99734.28;5095455;28;20051;-70
2021/11/12 02:14:11;;;;;;;3.00;1.20;;;;;;;-1.01;98.93;99739.41;5095208;28;20051;-70
2021/11/12 02:16:42;;;;;;;2.35;1.10;;;;;;;-1.19;99.00;99740.66;5095340;28;20044;-70
2021/11/12 02:19:09;;;;;;;2.75;1.25;;;;;;;-1.34;99.52;99746.94;5094902;28;20499;-69
2021/11/12 02:21:42;;;;;;;;;;;;;;;-1.29;100.00;99751.94;5095389;28;20500;-69
2021/11/12 02:24:11;;;;;;;1.35;1.20;;;;;;;-1.20;100.00;99757.69;5095069;28;19920;-68
2021/11/12 02:26:41;;;;;;;2.75;1.10;;;;;;;-1.54;100.00;99763.53;5094954;28;20051;-68
2021/11/12 02:29:09;;;;;;;4.35;1.17;;;;;;;-1.49;100.00;99762.59;5094953;28;20052;-68
2021/11/12 02:31:37;;;;;;;1.40;1.00;;;;;;;-1.39;100.00;99771.72;5094879;28;20048;-68
2021/11/12 02:34:07;;;;;;;2.25;1.27;;;;;;;-1.20;100.00;99775.56;5094397;28;20044;-68
2021/11/12 02:36:34;;;;;;;4.00;1.20;;;;;;;-1.24;99.84;99779.03;5095074;28;20134;-68
2021/11/12 02:39:04;;;;;;;;;;;;;;;-1.41;100.00;99776.88;5095048;28;20496;-68
2021/11/12 02:41:32;;;;;;;2.15;1.00;;;;;;;-1.42;100.00;99790.50;5094911;28;20379;-69
2021/11/12 02:44:00;;;;;;;2.08;1.10;;;;;;;-1.45;100.00;99785.47;5094888;28;20051;-68
2021/11/12 02:46:28;;;;;;;2.97;1.30;;;;;;;-1.46;100.00;99794.00;5094633;28;20052;-68
2021/11/12 02:48:56;;;;;;;2.55;1.15;;;;;;;-1.41;100.00;99797.28;5094715;28;20048;-68
2021/11/12 02:51:27;;;;;;;1.73;1.30;;;;;;;-1.36;100.00;99804.84;5094216;28;20525;-69
2021/11/12 02:53:55;;;;;;;2.55;1.17;;;;;;;-1.25;100.00;99810.56;5094175;28;20580;-68
2021/11/12 02:56:27;;;;;;;3.40;1.30;;;;;;;-1.17;100.00;99811.22;5094107;28;20055;-68
2021/11/12 02:58:57;;;;;;;1.73;1.20;;;;;;;-1.17;99.99;99815.50;5094540;28;20098;-68
2021/11/12 03:01:25;;;;;;;2.33;1.15;;;;;;;-1.03;99.02;99810.91;5094385;28;20048;-68
2021/11/12 03:03:53;;;;;;;3.03;1.35;;;;;;;-1.15;98.87;99818.88;5094176;28;20483;-68
2021/11/12 03:06:20;;;;;;;3.50;1.40;;;;;;;-1.13;99.47;99828.16;5094302;28;20461;-68
2021/11/12 03:08:47;;;;;;;;;;;;;;;-0.98;98.53;99821.03;5094496;28;20052;-68
2021/11/12 03:11:14;;;;;;;2.03;1.08;;;;;;;-1.08;98.46;99837.41;5094087;28;19927;-69
2021/11/12 03:13:44;;;;;;;2.33;1.27;;;;;;;-1.19;98.51;99828.28;5094091;28;20058;-70
2021/11/12 03:16:11;;;;;;;1.73;1.35;;;;;;;-1.25;99.00;99836.09;5093548;28;20085;-68
2021/11/12 03:18:39;;;;;;;2.60;1.30;;;;;;;-1.45;99.86;99840.75;5093508;28;20044;-69
2021/11/12 03:21:07;;;;;;;;;;;;;;;-1.37;100.00;99842.28;5094066;28;20052;-68
2021/11/12 03:23:37;;;;;;;2.33;1.13;;;;;;;-1.49;99.98;99845.09;5093955;28;19919;-70
2021/11/12 03:26:15;;;;;;;1.13;1.02;;;;;;;-1.66;100.00;99857.34;5093856;28;20055;-68
2021/11/12 03:29:07;;;;;;;1.17;1.08;;;;;;;-1.71;100.00;99856.59;5093670;28;20140;-68
2021/11/12 03:56:36;;;;;;;2.50;1.15;;;;;;;-1.91;100.00;99901.13;5093036;28;20110;-69
2021/11/12 04:01:55;;;;;;;1.63;1.20;;;;;;;-1.89;100.00;99914.69;5093259;28;20139;-70
2021/11/12 04:18:15;;;;;;;2.88;1.48;;;;;;;-1.85;100.00;99940.97;5092929;28;20055;-69
2021/11/12 04:21:00;;;;;;;4.00;1.30;;;;;;;-1.78;100.00;99948.50;5093099;28;20063;-69
2021/11/12 05:10:36;;;;;;;1.98;1.30;;;;;;;-0.82;98.81;100002.84;5091962;28;20055;-70
2021/11/12 05:13:22;;;;;;;2.53;1.17;;;;;;;-0.84;98.29;100015.69;5091785;28;20074;-70
2021/11/12 05:51:55;;;;;;;2.65;1.40;;;;;;;-1.29;100.00;100074.38;5095691;28;20096;-70
2021/11/12 05:57:08;;;;;;;3.78;1.38;;;;;;;-1.08;100.00;100079.97;5095052;28;20503;-70
2021/11/12 05:59:35;;;;;;;3.60;1.55;;;;;;;-1.00;100.00;100078.13;5095377;28;20389;-71
2021/11/12 06:02:04;;;;;;;2.30;1.33;;;;;;;-1.05;100.00;100085.88;5095620;28;20048;-71
2021/11/12 06:04:31;;;;;;;3.30;1.50;;;;;;;-1.12;100.00;100087.69;5095630;28;20055;-70
2021/11/12 06:06:58;;;;;;;4.15;1.50;;;;;;;-1.11;100.00;100091.91;5095569;28;20055;-70
2021/11/12 06:09:25;;;;;;;3.28;1.38;;;;;;;-1.19;100.00;100098.88;5095067;28;20048;-70
2021/11/12 06:11:53;;;;;;;2.35;1.30;;;;;;;-1.05;100.00;100106.31;5095502;28;20070;-70
2021/11/12 06:14:22;;;;;;;3.72;1.58;;;;;;;-0.94;100.00;100112.06;5094874;28;20048;-70
2021/11/12 06:16:49;;;;;;;3.50;1.52;;;;;;;-0.91;100.00;100116.25;5095014;28;20557;-70
2021/11/12 06:19:16;;;;;;;2.30;1.30;;;;;;;-0.89;100.00;100112.81;5094951;28;20511;-70
2021/11/12 06:21:43;;;;;;;2.63;1.45;;;;;;;-0.78;100.00;100133.03;5095317;28;20211;-71
2021/11/12 06:24:11;;;;;;;3.13;1.25;;;;;;;-0.80;99.38;100133.94;5095067;28;20044;-70
2021/11/12 06:26:38;;;;;;;4.85;1.48;;;;;;;-0.91;100.00;100132.44;5094898;28;20446;-70
2021/11/12 06:29:05;;;;;;;;;;;;;;;-0.75;99.24;100139.81;5095407;28;20048;-70
2021/11/12 06:31:33;;;;;;;;;;;;;;;-0.80;99.78;100141.59;5095148;28;19920;-70
2021/11/12 06:34:00;;;;;;;2.03;1.20;;;;;;;-0.83;99.76;100145.06;5095159;28;19926;-70
2021/11/12 06:36:28;;;;;;;4.80;1.27;;;;;;;-0.99;99.97;100147.03;5094438;28;20051;-70
2021/11/12 06:38:55;;;;;;;2.10;1.20;;;;;;;-1.01;100.00;100155.59;5094705;28;20562;-70
2021/11/12 06:41:42;;;;;;;4.78;1.60;;;;;;;-0.88;100.00;100159.63;5094343;28;21067;-70
2021/11/12 06:49:51;;;;;;;2.90;1.50;;;;;;;-0.71;99.61;100183.16;5094646;28;20621;-70
2021/11/12 06:52:19;;;;;;;1.85;1.40;;;;;;;-0.75;99.85;100183.25;5093287;28;20056;-69
2021/11/12 06:54:46;;;;;;;4.50;1.50;;;;;;;-0.73;99.73;100186.63;5094190;28;20059;-70
2021/11/12 06:57:13;;;;;;;;;;;;;;;-0.79;100.00;100191.84;5094870;28;20078;-71
2021/11/12 06:59:40;;;;;;;4.05;1.27;;;;;;;-0.88;100.00;100195.38;5094688;28;19924;-71
2021/11/12 07:02:10;;;;;;;;;;;;;;;-0.80;100.00;100198.63;5094364;28;20048;-71
2021/11/12 07:04:37;;;;;;;4.00;1.40;;;;;;;-0.66;99.96;100199.25;5094226;28;19927;-70
2021/11/12 07:07:05;;;;;;;1.73;1.00;;;;;;;-0.51;99.59;100204.97;5093748;28;20098;-70
2021/11/12 07:09:32;;;;;;;3.67;1.10;;;;;;;-0.50;98.72;100209.19;5094185;28;20513;-70
2021/11/12 07:11:59;;;;;;;;;;;;;;;-0.59;99.28;100211.91;5094799;28;20051;-70
2021/11/12 07:14:26;;;;;;;2.47;1.33;;;;;;;-0.62;99.81;100223.03;5093787;28;20367;-70
2021/11/12 07:16:53;;;;;;;2.42;1.40;;;;;;;-0.50;99.37;100224.53;5094225;28;20044;-70
2021/11/12 07:19:21;;;;;;;1.40;1.20;;;;;;;-0.39;98.87;100227.72;5093751;28;20050;-70
2021/11/12 07:21:48;;;;;;;1.38;1.10;;;;;;;-0.47;98.31;100222.75;5093817;28;20044;-70
2021/11/12 07:24:15;;;;;;;2.83;1.30;;;;;;;-0.47;98.93;100224.47;5093614;28;20499;-70
2021/11/12 07:26:43;;;;;;;1.83;1.13;;;;;;;-0.45;98.72;100233.78;5093756;28;20040;-70
2021/11/12 07:29:10;;;;;;;3.38;1.33;;;;;;;-0.52;99.36;100250.09;5093553;28;20055;-70
2021/11/12 07:31:39;;;;;;;2.88;1.40;;;;;;;-0.62;100.00;100246.03;5093775;28;20155;-70
2021/11/12 07:34:06;;;;;;;3.85;1.40;;;;;;;-0.50;100.00;100248.38;5093405;28;20071;-70
2021/11/12 07:36:37;;;;;;;2.13;1.50;;;;;;;-0.33;99.01;100247.25;5093837;28;20043;-70
2021/11/12 07:39:08;;;;;;;2.75;1.50;;;;;;;-0.29;98.29;100254.81;5093658;28;20288;-71
2021/11/12 07:41:54;;;;;;;2.53;1.40;;;;;;;-0.18;97.71;100257.19;5093602;28;20134;-71
2021/11/12 07:44:37;;;;;;;1.98;1.27;;;;;;;-0.31;98.27;100266.81;5093562;28;20052;-70
2021/11/12 07:47:10;;;;;;;3.38;1.40;;;;;;;-0.40;98.91;100272.06;5093562;28;20048;-70
2021/11/12 07:49:37;;;;;;;4.45;1.70;;;;;;;-0.49;99.54;100274.75;5094026;28;20048;-70
2021/11/12 07:52:06;;;;;;;4.78;1.52;;;;;;;-0.52;99.68;100273.09;5093383;28;20051;-71
2021/11/12 07:54:34;;;;;;;7.22;2.20;;;;;;;-0.49;100.00;100282.44;5093150;28;20056;-70
2021/11/12 07:57:01;;;;;;;5.38;1.90;;;;;;;-0.51;100.00;100287.59;5093050;28;20051;-70
2021/11/12 07:59:28;;;;;;;7.07;2.05;;;;;;;-0.50;100.00;100289.25;5093157;28;20044;-70
2021/11/12 08:01:55;;;;;;;9.18;1.75;;;;;;;-0.38;100.00;100302.72;5093305;28;20087;-70
2021/11/12 08:04:22;;;;;;;5.75;1.63;;;;;;;-0.39;99.95;100309.53;5092876;28;20051;-70
2021/11/12 08:06:52;;;;;;;2.85;1.60;;;;;;;-0.57;100.00;100304.72;5093340;28;20044;-70
2021/11/12 08:09:22;;;;;;;8.85;2.42;;;;;;;-0.44;100.00;100308.75;5092957;28;20048;-70
2021/11/12 08:11:52;;;;;;;4.18;1.60;;;;;;;-0.46;100.00;100310.53;5092873;28;20501;-70
2021/11/12 08:14:23;;;;;;;5.28;1.80;;;;;;;-0.44;100.00;100324.09;5093290;28;20057;-70
2021/11/12 08:17:08;;;;;;;7.90;2.05;;;;;;;-0.45;100.00;100322.41;5093026;28;20044;-70
2021/11/12 08:19:38;;;;;;;7.40;1.80;;;;;;;-0.41;100.00;100329.19;5093141;28;20048;-70
2021/11/12 08:22:08;;;;;;;6.97;2.13;;;;;;;-0.51;100.00;100330.19;5092901;28;20200;-70
2021/11/12 08:24:42;;;;;;;3.70;1.98;;;;;;;-0.17;100.00;100334.75;5093017;28;20071;-70
2021/11/12 08:30:13;;;;;;;4.07;1.40;;;;;;;0.06;98.37;100347.13;5051460;28;20052;-70
2021/11/12 08:32:58;;;;;;;5.50;1.80;;;;;;;0.05;99.22;100350.53;5092815;28;20131;-70
2021/11/12 08:35:34;;;;;;;3.70;1.55;;;;;;;0.12;98.16;100345.28;5092479;28;20043;-70
2021/11/12 08:38:09;;;;;;;2.40;1.80;;;;;;;0.11;98.68;100365.78;5092515;28;20050;-70
2021/11/12 08:40:48;;;;;;;4.75;1.83;;;;;;;0.01;99.02;100365.09;5092371;28;20085;-71
2021/11/12 08:43:18;;;;;;;2.65;1.60;;;;;;;0.14;98.24;100369.13;5091945;28;20090;-69
2021/11/12 08:45:58;;;;;;;2.00;1.60;;;;;;;0.24;98.25;100369.78;5092596;28;20048;-70
2021/11/12 08:48:35;;;;;;;3.92;1.65;;;;;;;0.37;98.03;100372.97;5092264;28;20051;-69
2021/11/12 08:51:02;;;;;;;;;;;;;;;0.30;97.52;100379.91;5092750;28;20128;-69
2021/11/12 08:53:29;;;;;;;2.00;1.60;;;;;;;0.20;97.86;100384.34;5092077;28;19926;-69
2021/11/12 08:55:57;;;;;;;4.15;1.60;;;;;;;0.21;96.98;100391.16;5092475;28;20422;-69
2021/11/12 08:58:24;;;;;;;2.35;1.40;;;;;;;0.29;97.24;100393.59;5091849;28;20249;-69
2021/11/12 09:00:51;;;;;;;4.57;1.80;;;;;;;0.39;96.62;100404.50;5092169;28;20054;-69
2021/11/12 09:03:18;;;;;;;1.88;1.48;;;;;;;0.31;97.23;100401.22;5091778;28;20048;-70
2021/11/12 09:05:45;;;;;;;2.92;1.60;;;;;;;0.11;98.79;100410.13;5092394;28;20077;-69
2021/11/12 09:08:12;;;;;;;3.42;2.15;;;;;;;0.00;98.30;100419.69;5092147;28;20048;-69
2021/11/12 09:10:39;;;;;;;4.00;1.48;;;;;;;0.08;98.62;100422.97;5092587;28;20044;-69
2021/11/12 09:13:14;;;;;;;2.40;1.40;;;;;;;0.03;98.45;100429.88;5092003;28;20059;-69
2021/11/12 09:15:47;;;;;;;4.15;1.30;;;;;;;0.06;98.63;100432.38;5091190;28;20134;-69
2021/11/12 09:18:14;;;;;;;2.88;1.50;;;;;;;0.01;98.96;100438.44;5092053;28;20055;-69
2021/11/12 09:20:41;;;;;;;3.47;1.58;;;;;;;-0.02;99.71;100447.84;5092165;28;20052;-68
2021/11/12 09:23:08;;;;;;;4.80;1.58;;;;;;;-0.03;99.99;100442.75;5091667;28;20048;-69
2021/11/12 09:25:35;;;;;;;3.50;1.52;;;;;;;-0.07;99.85;100454.75;5091985;28;20048;-69
2021/11/12 09:28:02;;;;;;;4.93;1.60;;;;;;;-0.15;100.00;100456.59;5091884;28;20510;-68
2021/11/12 09:30:35;;;;;;;2.20;1.40;;;;;;;-0.09;100.00;100453.91;5092116;28;20048;-69
2021/11/12 09:33:05;;;;;;;2.25;1.60;;;;;;;-0.13;100.00;100448.88;5092140;28;20048;-70
2021/11/12 09:35:33;;;;;;;4.45;1.52;;;;;;;-0.01;100.00;100454.63;5091750;28;20052;-69
2021/11/12 09:38:00;;;;;;;3.42;1.55;;;;;;;-0.06;99.73;100458.97;5091948;28;20416;-69
2021/11/12 09:40:28;;;;;;;3.83;1.33;;;;;;;0.06;99.34;100462.22;5091674;28;20059;-68
2021/11/12 09:42:54;;;;;;;;;;;;;;;0.08;99.42;100465.59;5092381;28;20044;-68
2021/11/12 09:45:22;;;;;;;3.50;1.40;;;;;;;0.26;98.68;100467.00;5091376;28;20395;-68
2021/11/12 09:47:52;;;;;;;2.47;1.60;;;;;;;0.08;99.62;100471.56;5091632;28;20410;-68
2021/11/12 09:50:24;;;;;;;2.75;1.50;;;;;;;0.19;98.52;100479.06;5091815;28;20138;-68
2021/11/12 09:52:51;;;;;;;2.72;1.65;;;;;;;0.40;98.20;100482.97;5091642;28;20157;-68
2021/11/12 09:55:20;;;;;;;4.35;1.80;;;;;;;0.34;97.99;100483.91;5091403;28;20059;-69
2021/11/12 09:57:48;;;;;;;6.32;1.88;;;;;;;0.16;98.55;100486.78;5091464;28;20044;-69
2021/11/12 10:00:18;;;;;;;5.43;2.05;;;;;;;0.25;98.63;100490.91;5091533;28;20048;-68
2021/11/12 10:02:49;;;;;;;5.45;2.13;;;;;;;0.26;98.87;100498.56;5092142;28;20080;-69
2021/11/12 10:05:32;;;;;;;3.90;1.90;;;;;;;0.23;99.46;100496.03;5091647;28;20052;-68
2021/11/12 10:07:59;;;;;;;4.78;2.00;;;;;;;0.20;98.99;100498.66;5091598;28;20044;-69
2021/11/12 10:10:26;;;;;;;;;;;;;;;0.21;99.29;100498.63;5092034;28;20048;-68
2021/11/12 10:12:54;;;;;;;3.55;1.90;;;;;;;0.27;99.78;100501.97;5091403;28;19920;-68
2021/11/12 10:15:24;;;;;;;7.13;1.73;;;;;;;0.38;99.05;100508.56;5091848;28;20097;-68
2021/11/12 10:17:52;;;;;;;4.22;1.50;;;;;;;0.63;97.42;100506.44;5091384;28;20475;-69
2021/11/12 10:20:23;;;;;;;3.20;1.80;;;;;;;0.47;97.42;100517.81;5091219;28;20059;-69
2021/11/12 10:22:52;;;;;;;2.72;1.52;;;;;;;0.48;97.43;100518.66;5091654;28;20048;-69
2021/11/12 10:25:20;;;;;;;1.80;1.45;;;;;;;0.38;98.34;100523.94;5091312;28;20054;-69
2021/11/12 10:27:51;;;;;;;2.22;1.63;;;;;;;0.41;98.27;100533.28;5094660;28;20056;-69
2021/11/12 10:30:21;;;;;;;3.53;1.38;;;;;;;0.36;98.70;100527.38;5095050;28;20056;-69
2021/11/12 10:32:48;;;;;;;3.78;1.67;;;;;;;0.35;98.66;100530.81;5094802;28;20056;-69
2021/11/12 10:35:28;;;;;;;2.63;1.15;;;;;;;0.51;98.11;100539.09;5094396;28;20051;-69
2021/11/12 10:38:06;;;;;;;4.07;1.48;;;;;;;0.48;98.02;100536.59;5094728;28;20484;-68
2021/11/12 10:40:33;;;;;;;2.42;1.30;;;;;;;0.51;98.06;100549.31;5094969;28;20048;-68
2021/11/12 10:43:00;;;;;;;3.58;1.75;;;;;;;0.62;97.25;100544.88;5094928;28;20043;-69
2021/11/12 10:45:29;;;;;;;5.50;1.42;;;;;;;0.53;98.03;100551.00;5094414;28;20055;-69
2021/11/12 10:47:58;;;;;;;2.95;1.50;;;;;;;0.40;98.02;100552.06;5094851;28;20070;-69
2021/11/12 10:50:29;;;;;;;3.63;1.50;;;;;;;0.53;98.52;100560.41;5094603;28;20066;-69
2021/11/12 10:52:58;;;;;;;4.50;1.38;;;;;;;0.36;99.09;100565.78;5094238;28;20496;-68
2021/11/12 10:55:26;;;;;;;2.38;1.38;;;;;;;0.33;98.55;100574.34;5094190;28;20403;-69
2021/11/12 10:57:55;;;;;;;1.85;1.20;;;;;;;0.41;98.71;100571.66;5094531;28;20464;-69
2021/11/12 11:00:24;;;;;;;2.45;1.45;;;;;;;0.50;98.13;100574.09;5094023;28;20393;-69
2021/11/12 11:02:54;;;;;;;2.00;1.33;;;;;;;0.58;98.16;100584.22;5094496;28;20082;-69
2021/11/12 11:05:22;;;;;;;3.38;1.40;;;;;;;0.60;97.85;100578.19;5094165;28;20044;-69
2021/11/12 11:07:52;;;;;;;3.25;1.73;;;;;;;0.57;98.29;100585.94;5094332;28;20040;-68
2021/11/12 11:10:23;;;;;;;1.88;1.33;;;;;;;0.40;99.55;100593.88;5094227;28;20048;-69
2021/11/12 11:12:50;;;;;;;3.33;1.58;;;;;;;0.36;99.93;100599.06;5094114;28;20062;-69
2021/11/12 11:15:35;;;;;;;3.72;1.40;;;;;;;0.26;100.00;100595.81;5094040;28;20048;-69
2021/11/12 11:18:21;;;;;;;3.40;1.42;;;;;;;0.22;100.00;100610.34;5093798;28;20051;-69
2021/11/12 11:20:59;;;;;;;4.05;1.30;;;;;;;0.30;100.00;100615.34;5094204;28;20078;-69
2021/11/12 11:23:29;;;;;;;2.20;1.55;;;;;;;0.46;99.07;100613.41;5093794;28;20089;-69
2021/11/12 11:26:02;;;;;;;2.58;1.30;;;;;;;0.40;99.93;100619.47;5093850;28;20431;-68
2021/11/12 11:28:31;;;;;;;2.28;1.40;;;;;;;0.51;99.60;100610.78;5093666;28;20044;-69
2021/11/12 11:30:59;;;;;;;4.45;2.00;;;;;;;0.73;98.51;100617.25;5093509;28;20052;-68
2021/11/12 11:33:27;;;;;;;4.43;1.95;;;;;;;0.69;98.74;100610.47;5093672;28;20134;-69
2021/11/12 11:35:56;;;;;;;2.53;1.52;;;;;;;0.55;98.95;100617.53;5093773;28;20052;-69
2021/11/12 11:38:30;;;;;;;3.03;1.40;;;;;;;0.41;99.56;100617.75;5092626;28;20047;-68
2021/11/12 11:40:59;;;;;;;2.80;1.70;;;;;;;0.47;99.94;100617.66;5093867;28;20051;-68
2021/11/12 11:43:26;;;;;;;4.47;1.90;;;;;;;0.39;100.00;100622.06;5092917;28;20147;-68
2021/11/12 11:45:57;;;;;;;3.95;2.10;;;;;;;0.36;100.00;100622.09;5093713;28;20047;-68
2021/11/12 11:48:24;;;;;;;2.47;1.67;;;;;;;0.39;99.78;100619.50;5093464;28;20071;-68
2021/11/12 11:50:53;;;;;;;2.67;1.80;;;;;;;0.31;100.00;100628.97;5093615;28;20048;-68
2021/11/12 11:53:25;;;;;;;2.88;1.73;;;;;;;0.39;100.00;100634.88;5092825;28;20056;-68
2021/11/12 11:56:10;;;;;;;4.65;1.75;;;;;;;0.30;99.72;100640.94;5093564;28;20055;-68
2021/11/12 11:58:41;;;;;;;4.28;1.90;;;;;;;0.46;100.00;100638.16;5093350;28;20139;-68
2021/11/12 12:01:35;;;;;;;2.80;1.48;;;;;;;0.51;98.99;100649.16;5092913;28;20062;-68
2021/11/12 12:04:36;;;;;;;3.20;1.63;;;;;;;0.38;100.00;100659.59;5093112;28;20415;-69
2021/11/12 12:07:25;;;;;;;3.00;1.42;;;;;;;0.41;100.00;100659.56;5092714;28;20499;-68
2021/11/12 12:10:14;;;;;;;2.97;1.63;;;;;;;0.54;99.57;100651.69;5093179;28;20056;-69
2021/11/12 12:12:49;;;;;;;2.65;1.77;;;;;;;0.40;99.35;100652.75;5092939;28;20503;-69
2021/11/12 12:15:33;;;;;;;4.03;1.88;;;;;;;0.45;99.40;100656.97;5092994;28;20139;-69
2021/11/12 12:18:09;;;;;;;3.00;1.50;;;;;;;0.47;99.32;100653.50;5092787;28;20044;-68
2021/11/12 12:20:44;;;;;;;8.25;1.95;;;;;;;0.48;99.05;100664.59;5093130;28;20044;-69
2021/11/12 13:22:36;;;;;;;3.25;1.80;;;;;;;0.48;99.53;100746.50;5091965;28;20089;-68
2021/11/12 13:25:05;;;;;;;1.88;1.55;;;;;;;0.46;99.09;100754.19;5091912;28;20047;-68
2021/11/12 13:27:32;;;;;;;2.78;1.80;;;;;;;0.42;99.77;100753.41;5091799;28;20047;-68
2021/11/12 13:29:59;;;;;;;4.68;2.10;;;;;;;0.35;99.56;100758.63;5092123;28;20048;-69
2021/11/12 13:32:26;;;;;;;4.30;2.13;;;;;;;0.28;100.00;100757.84;5091606;28;20055;-69
2021/11/12 13:34:55;;;;;;;4.47;2.05;;;;;;;0.19;100.00;100761.38;5091623;28;20052;-69
2021/11/12 13:37:26;;;;;;;3.63;1.98;;;;;;;0.29;100.00;100774.06;5091444;28;20044;-69
2021/11/12 13:40:06;;;;;;;6.05;2.25;;;;;;;0.26;100.00;100771.50;5092070;28;20048;-69
2021/11/12 13:42:41;;;;;;;3.78;2.30;;;;;;;0.20;100.00;100773.28;5091578;28;20052;-68
2021/11/12 13:45:19;;;;;;;2.75;1.95;;;;;;;0.29;100.00;100771.50;5091390;28;20051;-69
2021/11/12 13:47:47;;;;;;;3.28;2.30;;;;;;;0.34;100.00;100775.69;5092055;28;20048;-69
2021/11/12 13:50:17;;;;;;;5.68;2.20;;;;;;;0.42;98.51;100779.00;5091730;28;20044;-68
2021/11/12 13:52:44;;;;;;;5.43;2.30;;;;;;;0.43;98.89;100780.69;5091556;28;20591;-68
2021/11/12 13:55:15;;;;;;;5.63;1.95;;;;;;;0.41;99.50;100792.69;5091601;28;20406;-69
2021/11/12 13:57:55;;;;;;;2.72;2.05;;;;;;;0.34;99.71;100801.28;5091635;28;20148;-69
2021/11/12 14:00:26;;;;;;;4.22;1.98;;;;;;;0.28;100.00;100813.28;5091625;28;20048;-69
2021/11/12 14:02:58;;;;;;;3.92;2.17;;;;;;;0.33;99.66;100819.22;5095266;28;20071;-69
2021/11/12 14:05:28;;;;;;;4.43;2.08;;;;;;;0.36;100.00;100822.59;5095499;28;20121;-69
2021/11/12 14:08:06;;;;;;;3.47;2.30;;;;;;;0.42;99.69;100822.50;5095264;28;20403;-68
2021/11/12 14:10:38;;;;;;;3.33;2.13;;;;;;;0.38;99.04;100827.69;5095260;28;20047;-69
2021/11/12 14:13:06;;;;;;;3.30;2.03;;;;;;;0.35;99.61;100830.28;5094983;28;20392;-69
2021/11/12 14:15:38;;;;;;;4.47;2.30;;;;;;;0.35;99.07;100838.81;5095353;28;20040;-69
2021/11/12 14:18:22;;;;;;;3.85;1.88;;;;;;;0.21;100.00;100841.53;5095201;28;20055;-68
2021/11/12 14:21:08;;;;;;;2.38;1.80;;;;;;;0.24;100.00;100844.94;5095185;28;20054;-69
2021/11/12 14:24:12;;;;;;;2.75;1.83;;;;;;;0.25;100.00;100850.00;5095339;28;20055;-70
2021/11/12 14:26:48;;;;;;;3.28;2.10;;;;;;;0.35;99.68;100861.00;5095042;28;20487;-69
2021/11/12 14:29:42;;;;;;;5.13;2.78;;;;;;;-0.14;100.00;100866.63;5095005;28;20048;-69
2021/11/12 14:35:21;;;;;;;4.38;2.47;;;;;;;-0.09;100.00;100872.53;5046248;28;20052;-70
2021/11/12 14:38:10;;;;;;;7.47;2.35;;;;;;;-0.06;100.00;100875.06;5095055;28;20122;-70
2021/11/12 14:41:13;;;;;;;3.10;2.25;;;;;;;-0.09;100.00;100885.31;5095098;28;20044;-70
2021/11/12 14:46:27;;;;;;;2.63;2.10;;;;;;;0.07;100.00;100889.44;5091615;28;20665;-68
2021/11/12 14:49:07;;;;;;;4.18;2.58;;;;;;;-0.14;100.00;100895.59;5094969;28;20059;-68
2021/11/12 14:51:36;;;;;;;3.40;2.30;;;;;;;-0.08;100.00;100907.47;5094761;28;20123;-69
2021/11/12 14:54:10;;;;;;;3.13;2.40;;;;;;;-0.05;100.00;100915.16;5094104;28;20048;-68
2021/11/12 14:56:38;;;;;;;5.20;2.50;;;;;;;0.02;100.00;100919.31;5094729;28;20048;-69
2021/11/12 14:59:07;;;;;;;2.85;2.10;;;;;;;0.02;100.00;100921.88;5093955;28;20138;-70
2021/11/12 15:01:37;;;;;;;3.35;2.15;;;;;;;0.04;100.00;100914.19;5094557;28;20052;-69
2021/11/12 15:04:05;;;;;;;3.92;2.35;;;;;;;0.06;100.00;100923.56;5094005;28;20523;-69
2021/11/12 15:06:33;;;;;;;3.47;2.38;;;;;;;0.09;100.00;100927.81;5094580;28;20055;-69
2021/11/12 15:09:05;;;;;;;3.60;2.38;;;;;;;0.09;100.00;100933.75;5094184;28;20079;-69
2021/11/12 15:11:34;;;;;;;3.08;2.22;;;;;;;-0.01;100.00;100934.69;5094116;28;20055;-68
2021/11/12 15:14:05;;;;;;;3.70;2.60;;;;;;;0.02;100.00;100937.22;5093354;28;20056;-70
2021/11/12 15:16:32;;;;;;;3.58;2.47;;;;;;;0.01;100.00;100940.66;5094299;28;20048;-68
2021/11/12 15:19:00;;;;;;;3.03;2.17;;;;;;;0.07;100.00;100950.00;5094229;28;20072;-68
2021/11/12 15:21:30;;;;;;;3.45;2.38;;;;;;;0.15;100.00;100949.03;5094038;28;20047;-69
2021/11/12 15:24:15;;;;;;;3.15;2.10;;;;;;;0.17;100.00;100955.00;5093793;28;20555;-70
2021/11/12 15:26:55;;;;;;;3.42;2.03;;;;;;;0.20;100.00;100964.38;5094095;28;20052;-68